Time;durP1;ratioP1;P1;durP2;ratioP2;P2;SDS_P1;SDS_P2;PMS_P1;PMS_P2;Temp;Humidity;BMP_temperature;BMP_pressure;BME280_temperature;BME280_humidity;BME280_pressure;Samples;Min_cycle;Max_cycle;Signal;HPM_P1;HPM_P2
2022/05/16 00:02:12;;;;;;;;;;;;;;;16.51;100.00;101437.03;2611067;36;19989;-49
2022/05/16 00:04:49;;;;;;;;;;;;;;;16.51;100.00;101434.31;2612584;36;20058;-48
2022/05/16 00:07:17;;;;;;;;;;;;;;;16.46;100.00;101443.81;2612119;36;20367;-52
2022/05/16 00:09:49;;;;;;;;;;;;;;;16.51;100.00;101437.03;2613037;39;20498;-50
2022/05/16 00:12:17;;;;;;;;;;;;;;;16.45;100.00;101435.81;2612940;36;19973;-48
2022/05/16 00:14:46;;;;;;;;;;;;;;;16.39;100.00;101439.19;2613239;36;20441;-48
2022/05/16 00:17:17;;;;;;;;;;;;;;;16.19;100.00;101436.66;2612552;36;20093;-49
2022/05/16 00:19:45;;;;;;;;;;;;;;;16.14;100.00;101435.44;2611670;36;20034;-51
2022/05/16 00:22:13;;;;;;;;;;;;;;;16.11;100.00;101425.75;2612855;36;20073;-50
2022/05/16 00:24:42;;;;;;;;;;;;;;;16.18;100.00;101425.94;2612538;36;20082;-49
2022/05/16 00:27:10;;;;;;;;;;;;;;;16.10;100.00;101422.16;2612187;36;19947;-53
2022/05/16 00:29:39;;;;;;;;;;;;;;;15.94;100.00;101424.75;2612321;36;19962;-51
2022/05/16 00:32:07;;;;;;;;;;;;;;;16.04;100.00;101428.22;2612754;31;20439;-52
2022/05/16 00:34:38;;;;;;;;;;;;;;;16.07;100.00;101427.91;2611946;36;20909;-52
2022/05/16 00:37:06;;;;;;;;;;;;;;;16.01;100.00;101422.28;2612299;36;20878;-52
2022/05/16 00:39:34;;;;;;;;;;;;;;;16.00;100.00;101415.97;2612265;36;20030;-58
2022/05/16 00:42:02;;;;;;;;;;;;;;;15.93;100.00;101417.66;2612715;31;20049;-55
2022/05/16 00:44:33;;;;;;;;;;;;;;;15.92;100.00;101408.63;2613236;36;19950;-55
2022/05/16 00:47:02;;;;;;;;;;;;;;;15.88;100.00;101418.09;2613088;36;19958;-49
2022/05/16 00:49:32;;;;;;;;;;;;;;;15.78;100.00;101411.91;2612769;36;19950;-53
2022/05/16 00:52:05;;;;;;;;;;;;;;;15.79;100.00;101418.22;2612546;31;19950;-52
2022/05/16 00:54:34;;;;;;;;;;;;;;;15.68;100.00;101416.53;2598381;36;20343;-48
2022/05/16 00:57:04;;;;;;;;;;;;;;;15.64;100.00;101404.31;2612207;31;20030;-55
2022/05/16 00:59:35;;;;;;;;;;;;;;;15.59;100.00;101402.03;2612557;36;20339;-54
2022/05/16 01:04:50;;;;;;;;;;;;;;;15.47;100.00;101396.00;2611822;36;19958;-52
2022/05/16 01:07:24;;;;;;;;;;;;;;;15.50;100.00;101394.84;2611885;36;19977;-51
2022/05/16 01:09:52;;;;;;;;;;;;;;;15.42;100.00;101396.47;2610539;36;19954;-50
2022/05/16 01:12:20;;;;;;;;;;;;;;;15.31;100.00;101388.56;2611884;36;20077;-50
2022/05/16 01:14:49;;;;;;;;;;;;;;;15.26;100.00;101384.63;2611867;36;20081;-49
2022/05/16 01:17:18;;;;;;;;;;;;;;;15.17;100.00;101381.81;2612089;36;20018;-49
2022/05/16 01:19:46;;;;;;;;;;;;;;;15.07;100.00;101379.19;2611455;31;20061;-48
2022/05/16 01:22:32;;;;;;;;;;;;;;;15.14;100.00;101375.84;2612216;36;20167;-52
2022/05/16 01:25:05;;;;;;;;;;;;;;;15.17;100.00;101380.97;2611452;36;19951;-53
2022/05/16 01:27:43;;;;;;;;;;;;;;;15.04;100.00;101382.16;2612434;36;20456;-53
2022/05/16 01:30:12;;;;;;;;;;;;;;;14.94;100.00;101380.53;2612406;36;20046;-56
2022/05/16 01:32:40;;;;;;;;;;;;;;;15.02;100.00;101373.34;2611954;31;19985;-50
2022/05/16 01:35:09;;;;;;;;;;;;;;;15.10;100.00;101379.88;2611138;36;20033;-48
2022/05/16 01:40:20;;;;;;;;;;;;;;;14.90;100.00;101380.00;2611288;31;21036;-50
2022/05/16 01:42:48;;;;;;;;;;;;;;;14.83;100.00;101379.75;2612575;31;20042;-53
2022/05/16 01:45:16;;;;;;;;;;;;;;;14.87;100.00;101370.31;2612752;36;19946;-54
2022/05/16 01:47:44;;;;;;;;;;;;;;;14.87;100.00;101370.31;2613373;31;19950;-51
2022/05/16 01:50:12;;;;;;;;;;;;;;;14.97;100.00;101362.13;2612708;36;19962;-49
2022/05/16 01:52:40;;;;;;;;;;;;;;;14.89;100.00;101368.28;2612703;36;20463;-49
2022/05/16 01:55:11;;;;;;;;;;;;;;;14.84;100.00;101353.47;2612337;36;20037;-49
2022/05/16 01:57:41;;;;;;;;;;;;;;;14.72;100.00;101342.00;2612520;36;19950;-50
2022/05/16 02:00:12;;;;;;;;;;;;;;;14.78;100.00;101340.56;2612430;36;20065;-54
2022/05/16 02:02:42;;;;;;;;;;;;;;;14.73;100.00;101329.34;2611961;36;20105;-49
2022/05/16 02:05:10;;;;;;;;;;;;;;;14.74;100.00;101331.00;2612343;36;20432;-47
2022/05/16 02:07:38;;;;;;;;;;;;;;;14.70;100.00;101335.91;2612739;31;20050;-49
2022/05/16 02:10:08;;;;;;;;;;;;;;;14.69;100.00;101329.63;2612483;36;20042;-49
2022/05/16 02:12:36;;;;;;;;;;;;;;;14.64;100.00;101321.09;2613402;36;20359;-52
2022/05/16 02:15:09;;;;;;;;;;;;;;;14.55;100.00;101313.84;2611117;36;20398;-49
2022/05/16 02:17:37;;;;;;;;;;;;;;;14.50;100.00;101310.72;2612394;36;19951;-49
2022/05/16 02:20:05;;;;;;;;;;;;;;;14.47;100.00;101320.03;2612804;36;20530;-53
2022/05/16 02:25:15;;;;;;;;;;;;;;;14.47;100.00;101302.91;2611619;31;20038;-54
2022/05/16 02:27:43;;;;;;;;;;;;;;;14.41;100.00;101296.22;2613117;36;19981;-48
2022/05/16 02:30:15;;;;;;;;;;;;;;;14.29;100.00;101290.16;2613698;36;20408;-49
2022/05/16 02:32:43;;;;;;;;;;;;;;;14.26;100.00;101292.34;2612951;36;20526;-50
2022/05/16 02:35:19;;;;;;;;;;;;;;;14.29;100.00;101292.88;2615554;36;20423;-50
2022/05/16 02:37:47;;;;;;;;;;;;;;;14.23;100.00;101290.78;2613102;36;19950;-49
2022/05/16 02:40:15;;;;;;;;;;;;;;;14.19;100.00;101294.78;2611746;36;20371;-51
2022/05/16 02:42:43;;;;;;;;;;;;;;;14.29;100.00;101295.59;2611959;31;20034;-49
2022/05/16 02:45:14;;;;;;;;;;;;;;;14.16;100.00;101295.06;2612786;36;20061;-50
2022/05/16 02:47:42;;;;;;;;;;;;;;;14.16;100.00;101300.50;2612942;36;20119;-51
2022/05/16 02:50:11;;;;;;;;;;;;;;;14.13;100.00;101298.97;2612877;36;20042;-48
2022/05/16 02:52:39;;;;;;;;;;;;;;;14.08;100.00;101282.28;2612166;36;19958;-49
2022/05/16 02:55:08;;;;;;;;;;;;;;;14.04;100.00;101275.47;2612793;36;20074;-53
2022/05/16 02:57:36;;;;;;;;;;;;;;;14.10;100.00;101280.28;2612800;31;20022;-48
2022/05/16 03:00:05;;;;;;;;;;;;;;;14.05;100.00;101271.75;2613669;31;20049;-48
2022/05/16 03:02:35;;;;;;;;;;;;;;;14.10;100.00;101274.88;2612705;36;20077;-55
2022/05/16 03:05:03;;;;;;;;;;;;;;;14.14;100.00;101273.56;2612135;31;19969;-56
2022/05/16 03:07:31;;;;;;;;;;;;;;;14.16;100.00;101278.84;2611899;36;20547;-48
2022/05/16 03:09:59;;;;;;;;;;;;;;;14.01;100.00;101271.19;2611968;36;19954;-50
2022/05/16 03:12:28;;;;;;;;;;;;;;;13.87;100.00;101279.81;2612509;31;20030;-50
2022/05/16 03:14:56;;;;;;;;;;;;;;;13.91;100.00;101278.50;2612596;36;20008;-55
2022/05/16 03:17:24;;;;;;;;;;;;;;;13.90;100.00;101273.22;2613246;36;20071;-50
2022/05/16 03:19:55;;;;;;;;;;;;;;;13.90;100.00;101274.09;2612653;31;19947;-54
2022/05/16 03:22:23;;;;;;;;;;;;;;;14.00;100.00;101269.50;2611371;36;20065;-48
2022/05/16 03:24:51;;;;;;;;;;;;;;;13.87;100.00;101269.00;2613003;31;20030;-52
2022/05/16 03:27:19;;;;;;;;;;;;;;;13.81;100.00;101264.19;2612258;36;20002;-51
2022/05/16 03:29:48;;;;;;;;;;;;;;;13.77;100.00;101269.00;2612641;36;19977;-52
2022/05/16 03:32:16;;;;;;;;;;;;;;;13.91;100.00;101254.13;2612445;36;19950;-50
2022/05/16 03:34:44;;;;;;;;;;;;;;;13.99;100.00;101256.97;2612470;36;20039;-48
2022/05/16 03:37:15;;;;;;;;;;;;;;;13.76;100.00;101261.03;2612837;31;20037;-48
2022/05/16 03:42:23;;;;;;;;;;;;;;;13.88;100.00;101267.13;2613029;36;20375;-50
2022/05/16 03:44:51;;;;;;;;;;;;;;;13.96;100.00;101262.69;2613264;36;20520;-50
2022/05/16 03:47:19;;;;;;;;;;;;;;;14.03;100.00;101262.94;2613159;31;20481;-51
2022/05/16 03:49:47;;;;;;;;;;;;;;;14.01;100.00;101268.47;2612438;36;20042;-53
2022/05/16 03:52:18;;;;;;;;;;;;;;;14.07;100.00;101263.50;2612030;36;19946;-50
2022/05/16 03:54:46;;;;;;;;;;;;;;;14.12;100.00;101258.47;2612133;36;20030;-51
2022/05/16 03:57:22;;;;;;;;;;;;;;;14.09;100.00;101266.88;2612744;36;20077;-54
2022/05/16 03:59:50;;;;;;;;;;;;;;;13.99;100.00;101270.50;2612109;36;19974;-49
2022/05/16 04:02:18;;;;;;;;;;;;;;;13.97;100.00;101259.00;2612450;36;20427;-55
2022/05/16 04:04:46;;;;;;;;;;;;;;;14.04;100.00;101261.94;2613191;36;20454;-50
2022/05/16 04:07:14;;;;;;;;;;;;;;;14.02;100.00;101267.50;2612393;31;20534;-52
2022/05/16 04:09:45;;;;;;;;;;;;;;;14.15;100.00;101261.75;2612538;36;19950;-49
2022/05/16 04:12:13;;;;;;;;;;;;;;;14.21;100.00;101249.47;2612226;36;19975;-47
2022/05/16 04:14:41;;;;;;;;;;;;;;;14.24;100.00;101254.59;2612819;36;20113;-54
2022/05/16 04:17:09;;;;;;;;;;;;;;;14.22;100.00;101256.56;2612977;36;19946;-48
2022/05/16 04:19:37;;;;;;;;;;;;;;;14.22;100.00;101256.56;2612726;36;20026;-48
2022/05/16 04:22:06;;;;;;;;;;;;;;;14.19;100.00;101254.16;2611586;31;20066;-55
2022/05/16 04:24:34;;;;;;;;;;;;;;;14.26;100.00;101247.16;2612308;36;20057;-48
2022/05/16 04:27:04;;;;;;;;;;;;;;;14.51;100.00;101242.88;2611813;36;19947;-48
2022/05/16 04:29:32;;;;;;;;;;;;;;;14.44;100.00;101243.63;2612759;36;19973;-52
2022/05/16 04:32:00;;;;;;;;;;;;;;;14.48;100.00;101251.28;2613277;36;20496;-52
2022/05/16 04:34:28;;;;;;;;;;;;;;;14.61;100.00;101250.97;2612670;36;19984;-52
2022/05/16 04:36:56;;;;;;;;;;;;;;;14.71;100.00;101246.34;2613098;36;20041;-50
2022/05/16 04:39:24;;;;;;;;;;;;;;;14.66;100.00;101253.22;2612328;31;20089;-49
2022/05/16 04:44:38;;;;;;;;;;;;;;;14.90;100.00;101255.34;2612454;36;19951;-55
2022/05/16 04:47:07;;;;;;;;;;;;;;;15.06;100.00;101249.19;2612743;36;20354;-50
2022/05/16 04:49:35;;;;;;;;;;;;;;;15.16;100.00;101240.97;2612788;36;20033;-48
2022/05/16 04:52:03;;;;;;;;;;;;;;;15.14;100.00;101243.00;2612829;31;20133;-52
2022/05/16 04:54:31;;;;;;;;;;;;;;;15.30;100.00;101245.84;2613655;36;20444;-49
2022/05/16 04:56:59;;;;;;;;;;;;;;;15.46;100.00;101255.09;2612362;36;19958;-50
2022/05/16 04:59:28;;;;;;;;;;;;;;;15.54;100.00;101257.88;2613299;36;20347;-49
2022/05/16 05:01:58;;;;;;;;;;;;;;;15.53;100.00;101258.88;2612708;36;19977;-51
2022/05/16 05:04:26;;;;;;;;;;;;;;;15.68;100.00;101249.16;2613145;31;20026;-52
2022/05/16 05:06:54;;;;;;;;;;;;;;;15.61;100.00;101250.81;2612848;31;19981;-54
2022/05/16 05:09:22;;;;;;;;;;;;;;;15.89;100.00;101247.94;2612305;36;20049;-49
2022/05/16 05:14:39;;;;;;;;;;;;;;;15.91;100.00;101254.06;2612865;36;19951;-51
2022/05/16 05:17:11;;;;;;;;;;;;;;;15.99;100.00;101245.97;2612633;36;19955;-50
2022/05/16 05:19:40;;;;;;;;;;;;;;;15.96;100.00;101249.00;2613896;36;20069;-49
2022/05/16 05:22:09;;;;;;;;;;;;;;;15.90;100.00;101241.50;2613358;36;20100;-48
2022/05/16 05:24:37;;;;;;;;;;;;;;;16.05;100.00;101242.59;2614031;36;20062;-50
2022/05/16 05:27:05;;;;;;;;;;;;;;;16.14;100.00;101248.06;2613849;36;20765;-51
2022/05/16 05:29:33;;;;;;;;;;;;;;;16.08;100.00;101239.56;2613821;31;20073;-52
2022/05/16 05:32:01;;;;;;;;;;;;;;;16.15;100.00;101244.31;2612464;36;20073;-52
2022/05/16 05:34:34;;;;;;;;;;;;;;;16.16;100.00;101246.03;2613789;31;19965;-50
2022/05/16 05:37:02;;;;;;;;;;;;;;;16.16;100.00;101252.31;2613283;31;19951;-53
2022/05/16 05:39:31;;;;;;;;;;;;;;;16.37;100.00;101243.75;2614181;36;19968;-51
2022/05/16 05:41:59;;;;;;;;;;;;;;;16.39;100.00;101244.44;2613257;36;19982;-53
2022/05/16 05:44:27;;;;;;;;;;;;;;;16.47;100.00;101243.59;2613251;36;19963;-50
2022/05/16 05:46:55;;;;;;;;;;;;;;;16.61;100.00;101256.53;2613553;36;20038;-51
2022/05/16 05:49:23;;;;;;;;;;;;;;;16.69;100.00;101250.25;2613725;36;19991;-50
2022/05/16 05:51:55;;;;;;;;;;;;;;;16.74;100.00;101260.63;2612104;36;19965;-49
2022/05/16 05:54:23;;;;;;;;;;;;;;;16.78;100.00;101246.56;2612806;31;20358;-53
2022/05/16 05:56:51;;;;;;;;;;;;;;;17.00;100.00;101249.66;2612356;36;20090;-51
2022/05/16 05:59:20;;;;;;;;;;;;;;;17.11;100.00;101249.34;2610747;36;19980;-50
2022/05/16 06:01:48;;;;;;;;;;;;;;;17.04;100.00;101247.47;2612557;36;19976;-51
2022/05/16 06:04:16;;;;;;;;;;;;;;;16.95;100.00;101246.63;2612516;36;19953;-49
2022/05/16 06:06:46;;;;;;;;;;;;;;;17.12;100.00;101248.31;2611836;31;20074;-50
2022/05/16 06:09:17;;;;;;;;;;;;;;;17.27;100.00;101245.78;2611535;36;19947;-50
2022/05/16 06:11:48;;;;;;;;;;;;;;;17.28;100.00;101241.16;2612490;36;20493;-49
2022/05/16 06:14:16;;;;;;;;;;;;;;;17.48;100.00;101237.06;2612871;36;20340;-47
2022/05/16 06:16:44;;;;;;;;;;;;;;;17.76;100.00;101228.50;2613795;36;20009;-49
2022/05/16 06:19:12;;;;;;;;;;;;;;;17.91;100.00;101230.53;2613328;36;20089;-49
2022/05/16 06:21:40;;;;;;;;;;;;;;;18.23;100.00;101231.41;2611330;36;19954;-49
2022/05/16 06:25:31;;;;;;;;;;;;;;;18.19;100.00;101234.50;2610498;36;19946;-47
2022/05/16 06:27:00;;;;;;;;;;;;;;;18.56;100.00;101230.25;2611260;36;19958;-48
2022/05/16 06:29:28;;;;;;;;;;;;;;;18.66;100.00;101224.53;2599302;36;19985;-52
2022/05/16 06:31:56;;;;;;;;;;;;;;;18.98;100.00;101225.38;2611537;36;20641;-51
2022/05/16 06:34:24;;;;;;;;;;;;;;;18.88;100.00;101222.03;2611204;36;20038;-54
2022/05/16 06:36:52;;;;;;;;;;;;;;;19.14;100.00;101227.13;2611177;36;20424;-49
2022/05/16 06:39:20;;;;;;;;;;;;;;;19.30;100.00;101219.81;2612467;36;20041;-53
2022/05/16 06:41:49;;;;;;;;;;;;;;;19.37;100.00;101232.50;2610914;31;20948;-53
2022/05/16 06:44:19;;;;;;;;;;;;;;;19.80;100.00;101237.41;2610576;31;19946;-51
2022/05/16 06:46:48;;;;;;;;;;;;;;;19.70;100.00;101243.13;2609911;36;19950;-52
2022/05/16 06:49:16;;;;;;;;;;;;;;;19.61;100.00;101256.00;2608051;36;19950;-53
2022/05/16 06:51:44;;;;;;;;;;;;;;;19.50;100.00;101267.38;2611915;36;19958;-53
2022/05/16 06:54:12;;;;;;;;;;;;;;;19.53;100.00;101268.91;2609875;36;20582;-51
2022/05/16 06:56:40;;;;;;;;;;;;;;;19.68;100.00;101277.94;2611177;36;19947;-50
2022/05/16 06:59:08;;;;;;;;;;;;;;;19.82;100.00;101279.03;2612283;36;19950;-48
2022/05/16 07:01:39;;;;;;;;;;;;;;;20.13;100.00;101272.56;2612408;36;20065;-50
2022/05/16 07:04:07;;;;;;;;;;;;;;;20.22;100.00;101274.13;2612795;36;20021;-53
2022/05/16 07:06:35;;;;;;;;;;;;;;;20.07;100.00;101281.50;2612976;36;19958;-52
2022/05/16 07:09:03;;;;;;;;;;;;;;;20.23;100.00;101278.56;2613062;36;20515;-48
2022/05/16 07:11:32;;;;;;;;;;;;;;;20.47;100.00;101280.13;2612550;36;20038;-48
2022/05/16 07:14:00;;;;;;;;;;;;;;;20.78;100.00;101278.22;2611278;31;19950;-50
2022/05/16 07:16:29;;;;;;;;;;;;;;;20.59;100.00;101288.69;2612873;31;20145;-48
2022/05/16 07:19:00;;;;;;;;;;;;;;;20.87;100.00;101279.78;2612697;36;19977;-49
2022/05/16 07:21:28;;;;;;;;;;;;;;;20.99;100.00;101278.25;2612264;36;19977;-54
2022/05/16 07:23:56;;;;;;;;;;;;;;;21.13;100.00;101281.13;2611908;36;19981;-50
2022/05/16 07:29:04;;;;;;;;;;;;;;;21.32;100.00;101285.06;2606012;36;20382;-50
2022/05/16 07:31:32;;;;;;;;;;;;;;;21.08;100.00;101280.84;2611526;36;19947;-55
2022/05/16 07:34:03;;;;;;;;;;;;;;;20.98;100.00;101286.66;2607132;36;20265;-50
2022/05/16 07:36:31;;;;;;;;;;;;;;;20.76;100.00;101291.22;2613286;36;19954;-49
2022/05/16 07:38:59;;;;;;;;;;;;;;;20.60;100.00;101301.34;2611991;36;20432;-55
2022/05/16 07:41:28;;;;;;;;;;;;;;;20.57;100.00;101303.63;2611393;36;20070;-58
2022/05/16 07:43:57;;;;;;;;;;;;;;;20.64;100.00;101308.13;2611535;36;20030;-53
2022/05/16 07:46:25;;;;;;;;;;;;;;;20.44;100.00;101315.22;2612074;31;19957;-55
2022/05/16 07:48:53;;;;;;;;;;;;;;;20.33;100.00;101307.50;2613155;36;20359;-52
2022/05/16 07:51:23;;;;;;;;;;;;;;;20.06;100.00;101320.78;2611765;36;19958;-54
2022/05/16 07:53:51;;;;;;;;;;;;;;;19.65;100.00;101315.72;2612763;36;20451;-50
2022/05/16 07:56:20;;;;;;;;;;;;;;;19.55;100.00;101311.38;2612498;36;19954;-54
2022/05/16 07:58:47;;;;;;;;;;;;;;;19.44;100.00;101326.28;2612229;36;19951;-53
2022/05/16 08:01:15;;;;;;;;;;;;;;;19.09;100.00;101327.75;2612950;31;20061;-50
2022/05/16 08:03:43;;;;;;;;;;;;;;;18.85;100.00;101332.31;2612972;36;19973;-53
2022/05/16 08:06:11;;;;;;;;;;;;;;;18.91;100.00;101323.44;2612704;36;20030;-51
2022/05/16 08:11:23;;;;;;;;;;;;;;;18.91;100.00;101334.34;2612194;36;19950;-49
2022/05/16 08:13:51;;;;;;;;;;;;;;;18.77;100.00;101331.50;2612142;36;20050;-49
2022/05/16 08:16:19;;;;;;;;;;;;;;;18.85;100.00;101332.31;2612542;36;19954;-53
2022/05/16 08:18:47;;;;;;;;;;;;;;;19.08;100.00;101331.53;2612760;36;19954;-53
2022/05/16 08:21:15;;;;;;;;;;;;;;;19.17;100.00;101329.56;2612665;36;20424;-51
2022/05/16 08:23:45;;;;;;;;;;;;;;;19.36;100.00;101325.50;2612397;36;20042;-50
2022/05/16 08:26:13;;;;;;;;;;;;;;;19.50;100.00;101319.25;2612241;36;20030;-52
2022/05/16 08:28:42;;;;;;;;;;;;;;;19.55;100.00;101325.03;2612269;31;20038;-54
2022/05/16 08:31:10;;;;;;;;;;;;;;;19.69;100.00;101322.50;2612064;36;19946;-48
2022/05/16 08:33:40;;;;;;;;;;;;;;;20.13;100.00;101324.47;2605146;36;20530;-49
2022/05/16 08:41:33;;;;;;;;;;;;;;;20.95;100.00;101319.84;2612344;36;19969;-49
2022/05/16 08:44:07;;;;;;;;;;;;;;;20.83;100.00;101327.72;2612945;36;19951;-52
2022/05/16 08:46:36;;;;;;;;;;;;;;;20.73;100.00;101324.44;2613679;36;20343;-46
2022/05/16 08:49:10;;;;;;;;;;;;;;;20.99;100.00;101335.72;2611980;36;20038;-53
2022/05/16 08:51:38;;;;;;;;;;;;;;;20.77;100.00;101336.69;2611810;36;19955;-52
2022/05/16 08:54:12;;;;;;;;;;;;;;;20.44;100.00;101332.47;2612545;31;20078;-50
2022/05/16 08:56:42;;;;;;;;;;;;;;;20.76;100.00;101330.38;2612638;36;19950;-52
2022/05/16 08:59:14;;;;;;;;;;;;;;;20.96;100.00;101325.13;2611259;36;19947;-54
2022/05/16 09:01:44;;;;;;;;;;;;;;;21.07;100.00;101329.25;2613581;36;19966;-54
2022/05/16 09:04:15;;;;;;;;;;;;;;;20.93;100.00;101328.25;2611827;36;19972;-50
2022/05/16 09:06:48;;;;;;;;;;;;;;;21.06;100.00;101338.50;2612771;36;19968;-51
2022/05/16 09:09:20;;;;;;;;;;;;;;;21.16;100.00;101335.47;2611404;36;20061;-48
2022/05/16 09:11:55;;;;;;;;;;;;;;;21.34;100.00;101337.75;2612948;36;20363;-50
2022/05/16 09:14:35;;;;;;;;;;;;;;;21.61;100.00;101338.88;2611938;31;19981;-50
2022/05/16 09:17:07;;;;;;;;;;;;;;;21.61;100.00;101349.84;2611967;36;20085;-52
2022/05/16 09:19:50;;;;;;;;;;;;;;;21.99;100.00;101346.72;2612452;31;19974;-52
2022/05/16 09:22:20;;;;;;;;;;;;;;;22.45;100.00;101355.47;2612460;36;20086;-55
2022/05/16 09:24:53;;;;;;;;;;;;;;;22.60;100.00;101345.25;2612031;36;20501;-55
2022/05/16 09:30:06;;;;;;;;;;;;;;;22.61;100.00;101341.41;2611812;36;20038;-54
2022/05/16 09:32:36;;;;;;;;;;;;;;;22.57;100.00;101343.75;2612413;36;20062;-52
2022/05/16 09:35:04;;;;;;;;;;;;;;;22.66;100.00;101344.41;2611603;36;19950;-53
2022/05/16 09:37:32;;;;;;;;;;;;;;;22.68;100.00;101339.56;2611093;36;19950;-54
2022/05/16 09:40:03;;;;;;;;;;;;;;;22.36;100.00;101347.44;2594079;36;19973;-53
2022/05/16 09:42:34;;;;;;;;;;;;;;;22.28;100.00;101354.94;2611358;36;20664;-54
2022/05/16 09:45:04;;;;;;;;;;;;;;;22.49;100.00;101348.56;2612279;36;19978;-51
2022/05/16 09:47:40;;;;;;;;;;;;;;;22.75;100.00;101351.41;2594724;31;19969;-52
2022/05/16 09:50:16;;;;;;;;;;;;;;;22.77;100.00;101353.09;2612797;36;20335;-53
2022/05/16 09:52:46;;;;;;;;;;;;;;;22.70;100.00;101353.94;2612586;36;20491;-51
2022/05/16 09:55:25;;;;;;;;;;;;;;;23.12;100.00;101351.13;2612523;36;20030;-52
2022/05/16 09:57:57;;;;;;;;;;;;;;;23.44;100.00;101348.66;2612508;36;19950;-53
2022/05/16 10:00:33;;;;;;;;;;;;;;;23.67;100.00;101353.72;2612124;36;19997;-51
2022/05/16 10:03:03;;;;;;;;;;;;;;;24.05;100.00;101344.84;2612868;36;20043;-56
2022/05/16 10:05:32;;;;;;;;;;;;;;;24.20;100.00;101354.78;2613198;36;20034;-54
2022/05/16 10:08:02;;;;;;;;;;;;;;;23.95;100.00;101352.69;2613031;36;20026;-54
2022/05/16 10:10:36;;;;;;;;;;;;;;;24.16;100.00;101356.25;2611910;36;20029;-53
2022/05/16 10:13:04;;;;;;;;;;;;;;;24.67;100.00;101347.25;2613377;36;19946;-54
2022/05/16 10:15:34;;;;;;;;;;;;;;;24.47;100.00;101341.81;2613305;36;20338;-54
2022/05/16 10:18:03;;;;;;;;;;;;;;;24.78;100.00;101348.50;2613887;36;20331;-54
2022/05/16 10:20:33;;;;;;;;;;;;;;;24.76;100.00;101351.44;2613484;36;20045;-49
2022/05/16 10:23:02;;;;;;;;;;;;;;;25.09;100.00;101350.44;2613210;36;20458;-49
2022/05/16 10:25:35;;;;;;;;;;;;;;;24.51;100.00;101355.97;2613011;31;20042;-51
2022/05/16 10:28:03;;;;;;;;;;;;;;;24.65;100.00;101365.91;2611971;36;20054;-52
2022/05/16 10:33:24;;;;;;;;;;;;;;;24.39;100.00;101367.63;2612781;36;20034;-51
2022/05/16 10:33:26;;;;;;;;;;;;;;;24.56;100.00;101380.91;2613071;36;19973;-49
2022/05/16 10:35:57;;;;;;;;;;;;;;;24.27;100.00;101381.19;2613177;36;19954;-55
2022/05/16 10:38:29;;;;;;;;;;;;;;;24.60;100.00;101384.97;2612668;31;19947;-49
2022/05/16 10:41:01;;;;;;;;;;;;;;;24.80;100.00;101384.91;2612535;36;20658;-50
2022/05/16 10:43:36;;;;;;;;;;;;;;;24.44;100.00;101386.25;2613123;36;20458;-50
2022/05/16 10:46:06;;;;;;;;;;;;;;;24.59;100.00;101383.28;2593713;36;19950;-51
2022/05/16 10:48:39;;;;;;;;;;;;;;;25.01;100.00;101375.47;2604574;31;20495;-56
2022/05/16 10:51:11;;;;;;;;;;;;;;;25.24;100.00;101365.81;2606098;36;20050;-51
2022/05/16 10:53:45;;;;;;;;;;;;;;;24.92;100.00;101366.63;2613543;36;20001;-53
2022/05/16 10:56:32;;;;;;;;;;;;;;;25.69;100.00;101374.84;2612808;36;20324;-53
2022/05/16 10:59:04;;;;;;;;;;;;;;;25.38;100.00;101375.69;2612040;36;20032;-56
2022/05/16 11:01:34;;;;;;;;;;;;;;;25.06;100.00;101396.84;2612550;36;20527;-52
2022/05/16 11:04:13;;;;;;;;;;;;;;;25.27;100.00;101409.47;2611526;31;20057;-55
2022/05/16 11:06:56;;;;;;;;;;;;;;;25.95;100.00;101402.44;2612877;36;19946;-53
2022/05/16 11:09:30;;;;;;;;;;;;;;;25.83;100.00;101408.66;2612808;36;19954;-53
2022/05/16 11:12:02;;;;;;;;;;;;;;;26.04;98.66;101412.13;2612443;36;19957;-50
2022/05/16 11:14:33;;;;;;;;;;;;;;;25.61;99.93;101407.38;2612499;31;20475;-54
2022/05/16 11:17:05;;;;;;;;;;;;;;;26.05;97.82;101406.38;2613507;36;20426;-52
2022/05/16 11:19:39;;;;;;;;;;;;;;;26.75;94.67;101409.94;2613441;31;19966;-53
2022/05/16 11:22:13;;;;;;;;;;;;;;;26.82;93.26;101399.63;2612590;36;19951;-52
2022/05/16 11:24:44;;;;;;;;;;;;;;;26.72;91.37;101399.34;2612753;36;19955;-53
2022/05/16 11:27:25;;;;;;;;;;;;;;;26.85;80.32;101399.19;2613011;36;19947;-53
2022/05/16 11:30:00;;;;;;;;;;;;;;;26.38;88.74;101396.94;2612712;36;19950;-50
2022/05/16 11:32:39;;;;;;;;;;;;;;;26.49;91.56;101402.78;2613047;31;20034;-53
2022/05/16 11:35:09;;;;;;;;;;;;;;;26.48;95.17;101406.59;2612916;36;19950;-52
2022/05/16 11:37:53;;;;;;;;;;;;;;;25.96;92.33;101393.09;2612793;36;20097;-53
2022/05/16 11:40:26;;;;;;;;;;;;;;;26.09;100.00;101398.50;2612318;36;20057;-52
2022/05/16 11:43:03;;;;;;;;;;;;;;;25.95;97.26;101399.66;2612836;31;20076;-54
2022/05/16 11:45:39;;;;;;;;;;;;;;;26.07;94.99;101397.88;2612538;36;20750;-53
2022/05/16 11:48:14;;;;;;;;;;;;;;;25.82;98.72;101387.66;2612088;36;20045;-52
2022/05/16 11:50:45;;;;;;;;;;;;;;;25.79;100.00;101396.38;2594302;36;19950;-52
2022/05/16 11:53:27;;;;;;;;;;;;;;;25.71;99.54;101385.66;2594276;36;19946;-50
2022/05/16 12:01:32;;;;;;;;;;;;;;;26.03;100.00;101389.22;2613866;31;20376;-52
2022/05/16 12:04:08;;;;;;;;;;;;;;;25.90;100.00;101386.56;2612945;36;19973;-50
2022/05/16 12:06:37;;;;;;;;;;;;;;;26.06;100.00;101393.44;2612224;36;19954;-54
2022/05/16 12:09:16;;;;;;;;;;;;;;;25.96;100.00;101401.38;2612287;36;20001;-53
2022/05/16 12:11:54;;;;;;;;;;;;;;;25.77;100.00;101411.50;2612441;36;19958;-55
2022/05/16 12:14:29;;;;;;;;;;;;;;;25.65;100.00;101427.91;2612944;31;20355;-53
2022/05/16 12:16:59;;;;;;;;;;;;;;;25.36;100.00;101453.06;2611586;31;19957;-54
2022/05/16 12:19:29;;;;;;;;;;;;;;;24.90;100.00;101458.78;2612515;36;20591;-52
2022/05/16 12:22:02;;;;;;;;;;;;;;;24.22;100.00;101454.41;2613056;36;19947;-55
2022/05/16 12:24:32;;;;;;;;;;;;;;;24.30;100.00;101462.47;2613711;31;20637;-51
2022/05/16 12:27:09;;;;;;;;;;;;;;;23.97;100.00;101457.81;2612361;36;20033;-54
2022/05/16 12:29:49;;;;;;;;;;;;;;;23.82;100.00;101462.63;2611958;36;19950;-55
2022/05/16 12:32:24;;;;;;;;;;;;;;;24.07;100.00;101462.88;2611885;31;20637;-53
2022/05/16 12:34:52;;;;;;;;;;;;;;;24.14;100.00;101466.47;2612409;36;20069;-52
2022/05/16 12:37:22;;;;;;;;;;;;;;;23.90;100.00;101460.56;2613263;36;20555;-54
2022/05/16 12:39:56;;;;;;;;;;;;;;;23.93;100.00;101467.53;2613240;36;20057;-56
2022/05/16 12:42:29;;;;;;;;;;;;;;;23.58;100.00;101470.41;2612580;36;20512;-52
2022/05/16 12:45:02;;;;;;;;;;;;;;;23.52;100.00;101474.00;2613170;36;20310;-52
2022/05/16 12:47:49;;;;;;;;;;;;;;;23.31;100.00;101477.75;2613357;36;19950;-50
2022/05/16 12:50:25;;;;;;;;;;;;;;;23.15;100.00;101487.19;2612467;31;20392;-54
2022/05/16 12:53:14;;;;;;;;;;;;;;;23.24;100.00;101502.41;2605755;36;19951;-55
2022/05/16 12:55:54;;;;;;;;;;;;;;;22.91;100.00;101495.69;2611855;36;20424;-55
2022/05/16 12:58:26;;;;;;;;;;;;;;;23.34;100.00;101502.88;2603509;36;19981;-51
2022/05/16 13:01:01;;;;;;;;;;;;;;;23.29;100.00;101499.88;2611129;36;19992;-54
2022/05/16 13:03:42;;;;;;;;;;;;;;;23.61;100.00;101491.97;2611740;36;19961;-56
2022/05/16 13:06:25;;;;;;;;;;;;;;;23.89;100.00;101502.00;2611299;36;20105;-48
2022/05/16 13:08:56;;;;;;;;;;;;;;;23.51;100.00;101508.88;2612006;36;20049;-50
2022/05/16 13:11:28;;;;;;;;;;;;;;;23.41;100.00;101514.75;2611566;36;20471;-54
2022/05/16 13:14:05;;;;;;;;;;;;;;;23.54;100.00;101504.84;2612100;36;20339;-53
2022/05/16 13:16:37;;;;;;;;;;;;;;;23.36;100.00;101510.91;2612316;36;20359;-48
2022/05/16 13:19:09;;;;;;;;;;;;;;;23.33;100.00;101516.81;2611787;36;19955;-52
2022/05/16 13:21:40;;;;;;;;;;;;;;;23.42;100.00;101519.19;2612344;36;20442;-51